Arden, North Carolina
Current Conditions -  °F | °C
As of 8:54 AM on Monday 24 Nov 2014 (Local Time) from KAVL Reporting Station
Clear Clear  
Wind Chill: 57°   Ceiling: Unl
Heat Index: 57°   Visibility: 10mi
Dew Point: 51°   Wind: 15mph
Humidity: 81%   Direction: 170°S
Pressure: 29.77"   Gusts: 21mph
Location:  35.47°N, 82.52°W
Report Text: KAVL 241354Z 17013G18KT 10SM CLR 14/11 A2977 RMK AO2 SLP068 T01390106
Loading
Personal Weather Stations






























Interactive Weather Map New forecast layout! Learn more

10-Day Weather Forecast

Advertisements
Track Severe Weather on mobile